Dvinskoy Bereznik, Russia
Current Conditions -  °F | °C
As of 5:00 PM on Saturday 22 Nov 2014 (Local Time) from UUYY Reporting Station
Snow Showers Snow Showers  
Wind Chill: 21°   Ceiling: 1900
Heat Index: 28°   Visibility: 0.87mi
Dew Point: 25°   Wind: 7mph
Humidity: 86%   Direction: 290°WNW
Pressure: 29.94"   Gusts: 16mph
Location:  61.7°N, 45.53°E
Report Text: UUYY 221400Z 29003G07MPS 250V320 1400 R19/P1500U SHSN SCT008BKN019CB OVC066 M02/M04 Q1014 TEMPO 0700 +SHSN 19490239 RMKQFE751/1002
Loading
Personal Weather Stations






























Interactive Weather Map New forecast layout! Learn more

10-Day Weather Forecast

Advertisements
Track Severe Weather on mobile